sensor_id;sensor_type;location;lat;lon;timestamp;pressure;altitude;pressure_sealevel;temperature;humidity
61742;BME280;47650;49.848;9.620;2023-02-19T00:01:46;99944.03;;;11.43;65.31
61742;BME280;47650;49.848;9.620;2023-02-19T00:04:14;99944.34;;;11.21;66.06
61742;BME280;47650;49.848;9.620;2023-02-19T00:06:45;99937.50;;;11.28;65.82
61742;BME280;47650;49.848;9.620;2023-02-19T00:09:16;99946.75;;;11.04;66.10
61742;BME280;47650;49.848;9.620;2023-02-19T00:11:46;99931.50;;;11.45;65.52
61742;BME280;47650;49.848;9.620;2023-02-19T00:14:20;99911.69;;;11.10;66.23
61742;BME280;47650;49.848;9.620;2023-02-19T00:16:48;99916.47;;;10.97;66.53
61742;BME280;47650;49.848;9.620;2023-02-19T00:19:17;99925.66;;;11.03;66.59
61742;BME280;47650;49.848;9.620;2023-02-19T00:21:52;99901.94;;;11.11;66.63
61742;BME280;47650;49.848;9.620;2023-02-19T00:24:22;99894.09;;;10.70;67.74
61742;BME280;47650;49.848;9.620;2023-02-19T00:26:47;99911.13;;;11.26;66.44
61742;BME280;47650;49.848;9.620;2023-02-19T00:29:20;99868.59;;;11.36;65.37
61742;BME280;47650;49.848;9.620;2023-02-19T00:31:46;99898.56;;;11.19;66.28
61742;BME280;47650;49.848;9.620;2023-02-19T00:34:12;99916.31;;;10.89;67.60
61742;BME280;47650;49.848;9.620;2023-02-19T00:36:45;99898.09;;;11.33;66.59
61742;BME280;47650;49.848;9.620;2023-02-19T00:39:21;99918.94;;;11.08;67.16
61742;BME280;47650;49.848;9.620;2023-02-19T00:41:46;99915.91;;;10.84;67.71
61742;BME280;47650;49.848;9.620;2023-02-19T00:44:14;99890.69;;;11.37;66.51
61742;BME280;47650;49.848;9.620;2023-02-19T00:46:46;99882.63;;;11.19;67.19
61742;BME280;47650;49.848;9.620;2023-02-19T00:49:19;99882.94;;;10.96;67.48
61742;BME280;47650;49.848;9.620;2023-02-19T00:51:46;99864.03;;;11.19;67.10
61742;BME280;47650;49.848;9.620;2023-02-19T00:54:11;99863.50;;;11.25;66.67
61742;BME280;47650;49.848;9.620;2023-02-19T00:56:37;99877.06;;;10.93;68.91
61742;BME280;47650;49.848;9.620;2023-02-19T00:59:03;99833.84;;;10.63;69.35
61742;BME280;47650;49.848;9.620;2023-02-19T01:01:28;99862.13;;;10.62;69.81
61742;BME280;47650;49.848;9.620;2023-02-19T01:03:56;99743.38;;;9.97;69.21
61742;BME280;47650;49.848;9.620;2023-02-19T01:06:22;99806.63;;;10.31;69.99
61742;BME280;47650;49.848;9.620;2023-02-19T01:08:49;99840.78;;;10.73;69.64
61742;BME280;47650;49.848;9.620;2023-02-19T01:11:17;99874.28;;;10.94;69.49
61742;BME280;47650;49.848;9.620;2023-02-19T01:13:59;99872.59;;;10.93;68.70
61742;BME280;47650;49.848;9.620;2023-02-19T01:16:25;99874.28;;;10.94;68.83
61742;BME280;47650;49.848;9.620;2023-02-19T01:19:09;99885.03;;;10.63;69.48
61742;BME280;47650;49.848;9.620;2023-02-19T01:21:36;99848.56;;;10.26;70.25
61742;BME280;47650;49.848;9.620;2023-02-19T01:24:01;99881.84;;;10.69;69.60
61742;BME280;47650;49.848;9.620;2023-02-19T01:26:29;99860.88;;;10.37;70.24
61742;BME280;47650;49.848;9.620;2023-02-19T01:28:57;99875.13;;;10.75;69.84
61742;BME280;47650;49.848;9.620;2023-02-19T01:31:23;99871.78;;;10.73;71.54
61742;BME280;47650;49.848;9.620;2023-02-19T01:34:00;99853.75;;;10.38;72.66
61742;BME280;47650;49.848;9.620;2023-02-19T01:36:27;99849.75;;;10.63;71.44
61742;BME280;47650;49.848;9.620;2023-02-19T01:38:58;99848.47;;;10.77;70.74
61742;BME280;47650;49.848;9.620;2023-02-19T01:41:31;99827.41;;;10.56;70.54
61742;BME280;47650;49.848;9.620;2023-02-19T01:46:56;99834.38;;;10.66;70.59
61742;BME280;47650;49.848;9.620;2023-02-19T01:49:30;99840.19;;;10.31;72.07
61742;BME280;47650;49.848;9.620;2023-02-19T01:51:59;99828.25;;;10.66;71.06
61742;BME280;47650;49.848;9.620;2023-02-19T01:54:36;99831.16;;;10.33;72.02
61742;BME280;47650;49.848;9.620;2023-02-19T01:57:08;99791.66;;;10.30;71.26
61742;BME280;47650;49.848;9.620;2023-02-19T01:59:35;99802.63;;;9.96;72.28
61742;BME280;47650;49.848;9.620;2023-02-19T02:02:04;99772.69;;;10.25;72.64
61742;BME280;47650;49.848;9.620;2023-02-19T02:04:32;99796.13;;;10.79;70.84
61742;BME280;47650;49.848;9.620;2023-02-19T02:07:00;99806.19;;;10.26;72.45
61742;BME280;47650;49.848;9.620;2023-02-19T02:09:32;99802.28;;;10.69;70.99
61742;BME280;47650;49.848;9.620;2023-02-19T02:12:17;99814.16;;;10.46;71.74
61742;BME280;47650;49.848;9.620;2023-02-19T02:14:44;99801.75;;;10.37;71.63
61742;BME280;47650;49.848;9.620;2023-02-19T02:17:19;99809.50;;;10.28;72.70
61742;BME280;47650;49.848;9.620;2023-02-19T02:20:01;99799.75;;;10.19;73.09
61742;BME280;47650;49.848;9.620;2023-02-19T02:30:58;99796.00;;;10.51;72.18
61742;BME280;47650;49.848;9.620;2023-02-19T02:33:52;99759.00;;;9.81;73.60
61742;BME280;47650;49.848;9.620;2023-02-19T02:36:28;99778.53;;;10.09;73.77
61742;BME280;47650;49.848;9.620;2023-02-19T02:38:56;99796.97;;;10.30;73.07
61742;BME280;47650;49.848;9.620;2023-02-19T02:41:23;99785.50;;;10.20;74.63
61742;BME280;47650;49.848;9.620;2023-02-19T02:43:54;99749.53;;;10.08;74.47
61742;BME280;47650;49.848;9.620;2023-02-19T02:46:33;99783.41;;;10.04;74.73
61742;BME280;47650;49.848;9.620;2023-02-19T02:49:03;99729.72;;;9.92;75.02
61742;BME280;47650;49.848;9.620;2023-02-19T02:51:32;99765.88;;;10.32;74.08
61742;BME280;47650;49.848;9.620;2023-02-19T02:54:19;99769.59;;;10.10;74.16
61742;BME280;47650;49.848;9.620;2023-02-19T02:57:05;99752.72;;;9.92;74.77
61742;BME280;47650;49.848;9.620;2023-02-19T02:59:38;99770.31;;;10.03;75.58
61742;BME280;47650;49.848;9.620;2023-02-19T03:02:15;99761.22;;;10.05;75.57
61742;BME280;47650;49.848;9.620;2023-02-19T03:04:53;99775.75;;;10.11;75.40
61742;BME280;47650;49.848;9.620;2023-02-19T03:07:54;99776.84;;;10.08;75.23
61742;BME280;47650;49.848;9.620;2023-02-19T03:10:25;99774.06;;;10.10;74.56
61742;BME280;47650;49.848;9.620;2023-02-19T03:12:53;99774.88;;;9.91;75.37
61742;BME280;47650;49.848;9.620;2023-02-19T03:15:47;99783.13;;;9.97;74.89
61742;BME280;47650;49.848;9.620;2023-02-19T03:18:34;99726.94;;;9.94;73.85
61742;BME280;47650;49.848;9.620;2023-02-19T03:21:21;99769.63;;;10.01;74.94
61742;BME280;47650;49.848;9.620;2023-02-19T03:23:52;99694.59;;;9.71;74.43
61742;BME280;47650;49.848;9.620;2023-02-19T03:26:37;99763.06;;;10.05;74.00
61742;BME280;47650;49.848;9.620;2023-02-19T03:29:06;99757.22;;;10.11;73.83
61742;BME280;47650;49.848;9.620;2023-02-19T03:31:53;99732.78;;;10.17;73.65
61742;BME280;47650;49.848;9.620;2023-02-19T03:34:24;99773.84;;;10.42;74.30
61742;BME280;47650;49.848;9.620;2023-02-19T03:37:03;99762.00;;;10.37;74.13
61742;BME280;47650;49.848;9.620;2023-02-19T03:39:41;99773.75;;;9.84;77.24
61742;BME280;47650;49.848;9.620;2023-02-19T03:45:28;99774.84;;;9.71;77.25
61742;BME280;47650;49.848;9.620;2023-02-19T03:48:17;99752.53;;;9.74;76.85
61742;BME280;47650;49.848;9.620;2023-02-19T03:51:11;99763.06;;;10.05;75.51
61742;BME280;47650;49.848;9.620;2023-02-19T03:54:00;99771.56;;;10.18;75.28
61742;BME280;47650;49.848;9.620;2023-02-19T03:56:36;99762.91;;;9.96;75.13
61742;BME280;47650;49.848;9.620;2023-02-19T03:59:16;99774.09;;;10.00;75.35
61742;BME280;47650;49.848;9.620;2023-02-19T04:01:51;99789.53;;;10.24;74.11
61742;BME280;47650;49.848;9.620;2023-02-19T04:06:56;99797.38;;;10.16;74.08
61742;BME280;47650;49.848;9.620;2023-02-19T04:09:24;99716.72;;;9.50;75.49
61742;BME280;47650;49.848;9.620;2023-02-19T04:11:50;99787.47;;;10.18;75.97
61742;BME280;47650;49.848;9.620;2023-02-19T04:14:23;99796.38;;;9.97;76.41
61742;BME280;47650;49.848;9.620;2023-02-19T04:16:59;99806.94;;;9.88;76.26
61742;BME280;47650;49.848;9.620;2023-02-19T04:19:33;99784.94;;;10.07;75.59
61742;BME280;47650;49.848;9.620;2023-02-19T04:22:03;99810.31;;;10.00;75.45
61742;BME280;47650;49.848;9.620;2023-02-19T04:24:37;99800.41;;;9.92;75.83
61742;BME280;47650;49.848;9.620;2023-02-19T04:27:14;99804.22;;;10.09;75.07
61742;BME280;47650;49.848;9.620;2023-02-19T04:29:48;99806.00;;;10.08;75.16
61742;BME280;47650;49.848;9.620;2023-02-19T04:32:13;99795.00;;;10.13;74.36
61742;BME280;47650;49.848;9.620;2023-02-19T04:34:39;99801.69;;;10.17;74.60
61742;BME280;47650;49.848;9.620;2023-02-19T04:37:13;99815.78;;;10.18;74.44
61742;BME280;47650;49.848;9.620;2023-02-19T04:39:43;99794.38;;;9.80;76.34
61742;BME280;47650;49.848;9.620;2023-02-19T04:42:09;99786.03;;;9.94;76.51
61742;BME280;47650;49.848;9.620;2023-02-19T04:44:44;99811.97;;;9.81;78.04
61742;BME280;47650;49.848;9.620;2023-02-19T04:47:09;99777.03;;;9.56;78.58
61742;BME280;47650;49.848;9.620;2023-02-19T04:49:35;99775.03;;;9.39;79.23
61742;BME280;47650;49.848;9.620;2023-02-19T04:52:00;99806.59;;;9.62;79.34
61742;BME280;47650;49.848;9.620;2023-02-19T04:54:31;99815.38;;;9.62;79.97
61742;BME280;47650;49.848;9.620;2023-02-19T04:56:58;99804.94;;;9.60;81.24
61742;BME280;47650;49.848;9.620;2023-02-19T04:59:25;99816.81;;;9.76;81.04
61742;BME280;47650;49.848;9.620;2023-02-19T05:01:54;99749.16;;;9.12;81.87
61742;BME280;47650;49.848;9.620;2023-02-19T05:04:20;99820.69;;;9.62;81.51
61742;BME280;47650;49.848;9.620;2023-02-19T05:06:54;99764.38;;;9.19;82.65
61742;BME280;47650;49.848;9.620;2023-02-19T05:09:19;99801.06;;;9.74;82.85
61742;BME280;47650;49.848;9.620;2023-02-19T05:11:46;99830.22;;;9.44;84.08
61742;BME280;47650;49.848;9.620;2023-02-19T05:14:12;99818.78;;;9.43;83.95
61742;BME280;47650;49.848;9.620;2023-02-19T05:16:46;99826.81;;;9.32;84.06
61742;BME280;47650;49.848;9.620;2023-02-19T05:19:19;99822.34;;;9.32;84.75
61742;BME280;47650;49.848;9.620;2023-02-19T05:21:52;99832.53;;;9.37;86.05
61742;BME280;47650;49.848;9.620;2023-02-19T05:24:19;99831.47;;;9.18;86.33
61742;BME280;47650;49.848;9.620;2023-02-19T05:26:44;99806.50;;;9.11;86.46
61742;BME280;47650;49.848;9.620;2023-02-19T05:29:19;99796.66;;;8.92;86.35
61742;BME280;47650;49.848;9.620;2023-02-19T05:31:46;99821.16;;;9.15;85.75
61742;BME280;47650;49.848;9.620;2023-02-19T05:34:13;99819.00;;;9.30;85.17
61742;BME280;47650;49.848;9.620;2023-02-19T05:36:42;99806.13;;;9.16;84.63
61742;BME280;47650;49.848;9.620;2023-02-19T05:39:10;99827.84;;;9.19;84.56
61742;BME280;47650;49.848;9.620;2023-02-19T05:41:36;99814.31;;;9.13;83.94
61742;BME280;47650;49.848;9.620;2023-02-19T05:44:05;99815.59;;;9.18;83.32
61742;BME280;47650;49.848;9.620;2023-02-19T05:46:30;99824.97;;;9.22;82.83
61742;BME280;47650;49.848;9.620;2023-02-19T05:49:00;99845.84;;;9.56;81.83
61742;BME280;47650;49.848;9.620;2023-02-19T05:51:26;99858.03;;;9.38;82.21
61742;BME280;47650;49.848;9.620;2023-02-19T05:53:53;99780.84;;;9.02;81.94
61742;BME280;47650;49.848;9.620;2023-02-19T05:56:29;99843.13;;;9.68;80.74
61742;BME280;47650;49.848;9.620;2023-02-19T05:58:55;99846.38;;;9.81;80.54
61742;BME280;47650;49.848;9.620;2023-02-19T06:01:33;99812.19;;;9.28;80.15
61742;BME280;47650;49.848;9.620;2023-02-19T06:04:12;99855.03;;;9.52;79.88
61742;BME280;47650;49.848;9.620;2023-02-19T06:06:39;99799.13;;;9.05;80.51
61742;BME280;47650;49.848;9.620;2023-02-19T06:09:08;99813.78;;;9.50;79.20
61742;BME280;47650;49.848;9.620;2023-02-19T06:11:43;99863.66;;;9.85;78.68
61742;BME280;47650;49.848;9.620;2023-02-19T06:14:13;99826.53;;;9.66;77.94
61742;BME280;47650;49.848;9.620;2023-02-19T06:16:41;99853.97;;;9.65;78.42
61742;BME280;47650;49.848;9.620;2023-02-19T06:19:06;99869.13;;;9.93;77.41
61742;BME280;47650;49.848;9.620;2023-02-19T06:21:33;99853.97;;;9.65;78.38
61742;BME280;47650;49.848;9.620;2023-02-19T06:24:07;99861.28;;;9.82;77.64
61742;BME280;47650;49.848;9.620;2023-02-19T06:26:35;99831.41;;;9.60;77.31
61742;BME280;47650;49.848;9.620;2023-02-19T06:29:07;99825.94;;;9.52;77.17
61742;BME280;47650;49.848;9.620;2023-02-19T06:31:44;99844.97;;;9.77;76.79
61742;BME280;47650;49.848;9.620;2023-02-19T06:34:16;99865.66;;;10.03;76.46
61742;BME280;47650;49.848;9.620;2023-02-19T06:36:43;99827.50;;;9.34;76.79
61742;BME280;47650;49.848;9.620;2023-02-19T06:39:09;99879.88;;;9.92;75.93
61742;BME280;47650;49.848;9.620;2023-02-19T06:41:35;99882.22;;;9.85;75.65
61742;BME280;47650;49.848;9.620;2023-02-19T06:44:01;99846.16;;;9.53;75.97
61742;BME280;47650;49.848;9.620;2023-02-19T06:46:26;99856.44;;;9.56;76.08
61742;BME280;47650;49.848;9.620;2023-02-19T06:49:06;99882.13;;;10.06;74.89
61742;BME280;47650;49.848;9.620;2023-02-19T06:51:32;99883.22;;;9.63;75.53
61742;BME280;47650;49.848;9.620;2023-02-19T06:54:09;99893.63;;;9.86;75.37
61742;BME280;47650;49.848;9.620;2023-02-19T06:56:39;99913.97;;;9.85;74.72
61742;BME280;47650;49.848;9.620;2023-02-19T06:59:07;99892.75;;;10.16;74.02
61742;BME280;47650;49.848;9.620;2023-02-19T07:01:35;99912.47;;;9.92;74.77
61742;BME280;47650;49.848;9.620;2023-02-19T07:04:02;99905.00;;;10.07;74.88
61742;BME280;47650;49.848;9.620;2023-02-19T07:06:40;99860.34;;;9.52;74.64
61742;BME280;47650;49.848;9.620;2023-02-19T07:09:06;99909.53;;;10.26;74.03
61742;BME280;47650;49.848;9.620;2023-02-19T07:11:34;99901.06;;;9.92;74.00
61742;BME280;47650;49.848;9.620;2023-02-19T07:14:07;99924.63;;;10.05;74.02
61742;BME280;47650;49.848;9.620;2023-02-19T07:16:44;99936.25;;;10.13;74.06
61742;BME280;47650;49.848;9.620;2023-02-19T07:19:11;99921.22;;;10.14;72.60
61742;BME280;47650;49.848;9.620;2023-02-19T07:21:37;99874.75;;;10.10;72.23
61742;BME280;47650;49.848;9.620;2023-02-19T07:24:08;99946.56;;;10.57;71.69
61742;BME280;47650;49.848;9.620;2023-02-19T07:26:43;99902.66;;;10.24;71.98
61742;BME280;47650;49.848;9.620;2023-02-19T07:29:09;99944.94;;;10.66;71.54
61742;BME280;47650;49.848;9.620;2023-02-19T07:31:41;99949.09;;;10.49;71.75
61742;BME280;47650;49.848;9.620;2023-02-19T07:34:09;99952.19;;;10.93;70.10
61742;BME280;47650;49.848;9.620;2023-02-19T07:36:35;99920.50;;;10.91;70.01
61742;BME280;47650;49.848;9.620;2023-02-19T07:39:06;99951.91;;;10.96;69.97
61742;BME280;47650;49.848;9.620;2023-02-19T07:41:39;99961.69;;;11.05;68.82
61742;BME280;47650;49.848;9.620;2023-02-19T07:44:13;99926.94;;;10.99;68.55
61742;BME280;47650;49.848;9.620;2023-02-19T07:46:44;99964.88;;;11.48;67.86
61742;BME280;47650;49.848;9.620;2023-02-19T07:49:17;99959.03;;;10.96;68.59
61742;BME280;47650;49.848;9.620;2023-02-19T07:52:08;99987.78;;;11.00;69.38
61742;BME280;47650;49.848;9.620;2023-02-19T07:54:36;99964.06;;;10.69;70.37
61742;BME280;47650;49.848;9.620;2023-02-19T07:57:01;99986.13;;;10.89;70.28
61742;BME280;47650;49.848;9.620;2023-02-19T07:59:27;99986.25;;;10.88;70.13
61742;BME280;47650;49.848;9.620;2023-02-19T08:01:53;99998.22;;;10.63;70.34
61742;BME280;47650;49.848;9.620;2023-02-19T08:04:39;99979.69;;;11.31;67.90
61742;BME280;47650;49.848;9.620;2023-02-19T08:07:13;99977.31;;;11.08;68.52
61742;BME280;47650;49.848;9.620;2023-02-19T08:09:52;99981.94;;;10.87;69.03
61742;BME280;47650;49.848;9.620;2023-02-19T08:12:57;99998.00;;;10.85;70.73
61742;BME280;47650;49.848;9.620;2023-02-19T08:15:42;99998.88;;;10.45;72.44
61742;BME280;47650;49.848;9.620;2023-02-19T08:18:08;100007.56;;;10.26;73.64
61742;BME280;47650;49.848;9.620;2023-02-19T08:20:35;100009.44;;;10.35;73.47
61742;BME280;47650;49.848;9.620;2023-02-19T08:23:24;100006.69;;;10.16;75.00
61742;BME280;47650;49.848;9.620;2023-02-19T08:25:59;99986.72;;;10.12;74.99
61742;BME280;47650;49.848;9.620;2023-02-19T08:28:28;100027.31;;;10.43;74.20
61742;BME280;47650;49.848;9.620;2023-02-19T08:30:58;100016.47;;;10.25;74.45
61742;BME280;47650;49.848;9.620;2023-02-19T08:33:24;100017.78;;;10.71;73.47
61742;BME280;47650;49.848;9.620;2023-02-19T08:36:00;100017.22;;;10.68;72.66
61742;BME280;47650;49.848;9.620;2023-02-19T08:38:33;100026.91;;;10.48;71.98
61742;BME280;47650;49.848;9.620;2023-02-19T08:41:11;100021.97;;;10.64;71.46
61742;BME280;47650;49.848;9.620;2023-02-19T08:43:40;100032.03;;;10.40;71.71
61742;BME280;47650;49.848;9.620;2023-02-19T08:46:11;100020.00;;;10.66;71.08
61742;BME280;47650;49.848;9.620;2023-02-19T08:48:43;100046.84;;;10.42;71.20
61742;BME280;47650;49.848;9.620;2023-02-19T08:51:10;100033.97;;;10.68;71.36
61742;BME280;47650;49.848;9.620;2023-02-19T08:53:37;100045.91;;;10.53;73.33
61742;BME280;47650;49.848;9.620;2023-02-19T08:56:08;100051.19;;;10.22;73.77
61742;BME280;47650;49.848;9.620;2023-02-19T08:58:43;100062.94;;;10.29;74.22
61742;BME280;47650;49.848;9.620;2023-02-19T09:01:10;100069.22;;;10.28;74.38
61742;BME280;47650;49.848;9.620;2023-02-19T09:03:51;100084.69;;;10.23;74.16
61742;BME280;47650;49.848;9.620;2023-02-19T09:06:43;100080.19;;;10.45;71.31
61742;BME280;47650;49.848;9.620;2023-02-19T09:09:09;100068.72;;;10.34;71.17
61742;BME280;47650;49.848;9.620;2023-02-19T09:11:42;100008.91;;;10.21;70.48
61742;BME280;47650;49.848;9.620;2023-02-19T09:14:09;100082.03;;;10.85;69.87
61742;BME280;47650;49.848;9.620;2023-02-19T09:16:35;100086.56;;;11.23;68.18
61742;BME280;47650;49.848;9.620;2023-02-19T09:19:03;100096.88;;;10.97;68.85
61742;BME280;47650;49.848;9.620;2023-02-19T09:21:41;100095.13;;;10.86;69.60
61742;BME280;47650;49.848;9.620;2023-02-19T09:24:08;100112.44;;;10.50;70.13
61742;BME280;47650;49.848;9.620;2023-02-19T09:26:36;100098.75;;;10.76;69.19
61742;BME280;47650;49.848;9.620;2023-02-19T09:29:03;100044.25;;;10.52;69.42
61742;BME280;47650;49.848;9.620;2023-02-19T09:31:30;100120.59;;;10.58;69.71
61742;BME280;47650;49.848;9.620;2023-02-19T09:34:07;100108.22;;;10.68;71.32
61742;BME280;47650;49.848;9.620;2023-02-19T09:36:43;100129.34;;;10.07;73.65
61742;BME280;47650;49.848;9.620;2023-02-19T09:39:08;100112.22;;;10.11;74.68
61742;BME280;47650;49.848;9.620;2023-02-19T09:41:38;100122.81;;;10.11;73.31
61742;BME280;47650;49.848;9.620;2023-02-19T09:44:41;100120.63;;;10.16;74.96
61742;BME280;47650;49.848;9.620;2023-02-19T09:47:19;100109.94;;;10.27;75.34
61742;BME280;47650;49.848;9.620;2023-02-19T09:50:03;100123.66;;;9.90;74.65
61742;BME280;47650;49.848;9.620;2023-02-19T09:52:44;100119.78;;;9.94;74.33
61742;BME280;47650;49.848;9.620;2023-02-19T09:55:36;100132.06;;;10.16;72.48
61742;BME280;47650;49.848;9.620;2023-02-19T10:00:55;100128.47;;;10.39;70.47
61742;BME280;47650;49.848;9.620;2023-02-19T10:03:27;100134.41;;;10.52;70.40
61742;BME280;47650;49.848;9.620;2023-02-19T10:06:05;100107.25;;;10.39;70.41
61742;BME280;47650;49.848;9.620;2023-02-19T10:08:40;100120.75;;;10.97;70.27
61742;BME280;47650;49.848;9.620;2023-02-19T10:11:10;100109.63;;;10.72;69.87
61742;BME280;47650;49.848;9.620;2023-02-19T10:14:06;100147.09;;;10.89;70.31
61742;BME280;47650;49.848;9.620;2023-02-19T10:16:39;100110.91;;;10.47;69.91
61742;BME280;47650;49.848;9.620;2023-02-19T10:19:11;100150.06;;;11.05;69.62
61742;BME280;47650;49.848;9.620;2023-02-19T10:21:44;100153.06;;;11.22;69.00
61742;BME280;47650;49.848;9.620;2023-02-19T10:24:23;100138.22;;;11.09;67.96
61742;BME280;47650;49.848;9.620;2023-02-19T10:26:51;100140.88;;;10.69;68.07
61742;BME280;47650;49.848;9.620;2023-02-19T10:29:18;100162.75;;;10.92;67.56
61742;BME280;47650;49.848;9.620;2023-02-19T10:32:07;100149.63;;;11.00;67.61
61742;BME280;47650;49.848;9.620;2023-02-19T10:34:43;100142.31;;;10.83;67.43
61742;BME280;47650;49.848;9.620;2023-02-19T10:37:14;100139.19;;;11.08;66.37
61742;BME280;47650;49.848;9.620;2023-02-19T10:39:46;100158.91;;;11.16;66.99
61742;BME280;47650;49.848;9.620;2023-02-19T10:42:21;100174.72;;;10.86;66.94
61742;BME280;47650;49.848;9.620;2023-02-19T10:44:54;100103.03;;;10.67;66.10
61742;BME280;47650;49.848;9.620;2023-02-19T10:47:26;100132.66;;;11.22;65.30
61742;BME280;47650;49.848;9.620;2023-02-19T10:50:02;100168.53;;;12.16;63.03
61742;BME280;47650;49.848;9.620;2023-02-19T10:52:29;100162.66;;;11.93;62.72
61742;BME280;47650;49.848;9.620;2023-02-19T10:55:24;100170.19;;;11.88;62.46
61742;BME280;47650;49.848;9.620;2023-02-19T10:57:50;100171.94;;;11.38;64.00
61742;BME280;47650;49.848;9.620;2023-02-19T11:00:28;100126.25;;;11.25;64.31
61742;BME280;47650;49.848;9.620;2023-02-19T11:05:53;100185.53;;;11.55;66.28
61742;BME280;47650;49.848;9.620;2023-02-19T11:08:26;100193.06;;;11.40;67.26
61742;BME280;47650;49.848;9.620;2023-02-19T11:11:04;100094.25;;;10.66;68.40
61742;BME280;47650;49.848;9.620;2023-02-19T11:13:32;100188.91;;;11.66;68.87
61742;BME280;47650;49.848;9.620;2023-02-19T11:16:03;100168.84;;;10.83;69.30
61742;BME280;47650;49.848;9.620;2023-02-19T11:18:33;100210.38;;;11.34;69.01
61742;BME280;47650;49.848;9.620;2023-02-19T11:21:04;100204.66;;;10.98;68.23
61742;BME280;47650;49.848;9.620;2023-02-19T11:23:34;100204.53;;;11.00;70.10
61742;BME280;47650;49.848;9.620;2023-02-19T11:26:04;100214.66;;;10.85;71.11
61742;BME280;47650;49.848;9.620;2023-02-19T11:28:35;100235.38;;;10.70;72.21
61742;BME280;47650;49.848;9.620;2023-02-19T11:31:21;100241.84;;;10.56;72.83
61742;BME280;47650;49.848;9.620;2023-02-19T11:34:22;100241.25;;;10.73;72.77
61742;BME280;47650;49.848;9.620;2023-02-19T11:39:34;100231.50;;;12.15;66.93
61742;BME280;47650;49.848;9.620;2023-02-19T11:42:15;100203.16;;;12.53;63.87
61742;BME280;47650;49.848;9.620;2023-02-19T11:47:39;100243.25;;;12.03;66.56
61742;BME280;47650;49.848;9.620;2023-02-19T11:53:11;100266.66;;;10.76;72.84
61742;BME280;47650;49.848;9.620;2023-02-19T11:55:56;100264.09;;;10.44;74.71
61742;BME280;47650;49.848;9.620;2023-02-19T11:58:55;100254.81;;;10.38;76.62
61742;BME280;47650;49.848;9.620;2023-02-19T12:01:46;100248.94;;;10.34;76.54
61742;BME280;47650;49.848;9.620;2023-02-19T12:04:32;100219.84;;;10.23;73.09
61742;BME280;47650;49.848;9.620;2023-02-19T12:12:40;100236.09;;;11.43;68.53
61742;BME280;47650;49.848;9.620;2023-02-19T12:18:25;100191.31;;;11.09;68.07
61742;BME280;47650;49.848;9.620;2023-02-19T12:21:18;100191.44;;;11.78;66.99
61742;BME280;47650;49.848;9.620;2023-02-19T12:29:53;100210.47;;;12.51;64.64
61742;BME280;47650;49.848;9.620;2023-02-19T12:32:53;100207.66;;;12.43;65.89
61742;BME280;47650;49.848;9.620;2023-02-19T12:35:36;100215.59;;;12.63;63.76
61742;BME280;47650;49.848;9.620;2023-02-19T12:38:43;100224.81;;;12.78;62.38
61742;BME280;47650;49.848;9.620;2023-02-19T12:41:36;100233.69;;;13.89;58.84
61742;BME280;47650;49.848;9.620;2023-02-19T12:44:21;100217.63;;;12.88;61.13
61742;BME280;47650;49.848;9.620;2023-02-19T12:46:59;100181.31;;;12.97;60.62
61742;BME280;47650;49.848;9.620;2023-02-19T12:49:30;100248.22;;;14.13;58.55
61742;BME280;47650;49.848;9.620;2023-02-19T12:52:06;100225.53;;;14.53;56.45
61742;BME280;47650;49.848;9.620;2023-02-19T12:54:37;100219.97;;;13.39;58.74
61742;BME280;47650;49.848;9.620;2023-02-19T12:57:24;100254.69;;;12.52;61.87
61742;BME280;47650;49.848;9.620;2023-02-19T13:00:37;100230.31;;;13.87;59.52
61742;BME280;47650;49.848;9.620;2023-02-19T13:05:46;100227.03;;;13.76;57.07
61742;BME280;47650;49.848;9.620;2023-02-19T13:08:38;100227.81;;;13.40;58.55
61742;BME280;47650;49.848;9.620;2023-02-19T13:11:13;100211.03;;;13.20;59.89
61742;BME280;47650;49.848;9.620;2023-02-19T13:16:13;100228.69;;;11.97;62.83
61742;BME280;47650;49.848;9.620;2023-02-19T13:18:59;100225.19;;;11.97;63.08
61742;BME280;47650;49.848;9.620;2023-02-19T13:21:29;100195.97;;;12.16;62.21
61742;BME280;47650;49.848;9.620;2023-02-19T13:24:23;100211.78;;;12.75;61.61
61742;BME280;47650;49.848;9.620;2023-02-19T13:27:34;100220.00;;;12.44;62.27
61742;BME280;47650;49.848;9.620;2023-02-19T13:30:20;100221.41;;;12.29;62.85
61742;BME280;47650;49.848;9.620;2023-02-19T13:35:59;100220.56;;;12.09;63.29
61742;BME280;47650;49.848;9.620;2023-02-19T13:38:31;100215.09;;;12.49;62.66
61742;BME280;47650;49.848;9.620;2023-02-19T13:40:59;100198.88;;;12.33;62.99
61742;BME280;47650;49.848;9.620;2023-02-19T13:43:28;100214.03;;;12.70;62.72
61742;BME280;47650;49.848;9.620;2023-02-19T13:46:07;100210.72;;;13.05;60.85
61742;BME280;47650;49.848;9.620;2023-02-19T13:48:37;100212.34;;;13.89;59.26
61742;BME280;47650;49.848;9.620;2023-02-19T14:04:47;100217.16;;;15.86;50.73
61742;BME280;47650;49.848;9.620;2023-02-19T14:09:44;100229.03;;;13.91;57.07
61742;BME280;47650;49.848;9.620;2023-02-19T14:12:20;100232.59;;;13.37;60.13
61742;BME280;47650;49.848;9.620;2023-02-19T14:14:56;100258.06;;;12.35;62.13
61742;BME280;47650;49.848;9.620;2023-02-19T14:17:29;100269.81;;;12.62;62.30
61742;BME280;47650;49.848;9.620;2023-02-19T14:22:46;100274.28;;;12.02;64.32
61742;BME280;47650;49.848;9.620;2023-02-19T14:25:44;100257.50;;;11.52;66.13
61742;BME280;47650;49.848;9.620;2023-02-19T14:28:34;100261.19;;;11.70;66.48
61742;BME280;47650;49.848;9.620;2023-02-19T14:34:22;100244.84;;;11.84;65.96
61742;BME280;47650;49.848;9.620;2023-02-19T14:37:00;100234.44;;;11.42;66.27
61742;BME280;47650;49.848;9.620;2023-02-19T14:39:30;100249.88;;;11.78;65.43
61742;BME280;47650;49.848;9.620;2023-02-19T14:42:11;100266.38;;;11.72;65.15
61742;BME280;47650;49.848;9.620;2023-02-19T14:44:54;100282.69;;;12.17;64.08
61742;BME280;47650;49.848;9.620;2023-02-19T14:47:44;100286.44;;;11.95;63.64
61742;BME280;47650;49.848;9.620;2023-02-19T14:50:16;100252.13;;;11.82;63.39